アトランタ の空港の天気 - METARとTAF

ハーツフィールド・ジャクソン・アトランタ国際空港 ( KATL / ATL ) - アメリカ ジョージア州アトランタ
飛行場実況気象(Metar)
観測時間08/22 11:52 EDT (08/22 15:52 UTC)
風向・風速不定 2m/s
視程10km以上
天気現象
全天の4割程度の雲 雲底高度 1160m
全天の4割程度の雲 雲底高度 4880m
気温31.7℃
湿度52%
気圧1018.2hPa
METARKATL 221552Z VRB04KT 10SM SCT038 SCT160 32/21 A3011 RMK AO2 SLP182 T03170206
過去の天気等 Google飛行場航空写真 Wunderground天気予報

過去48時間のMETAR

飛行場予報(TAF)
発表時間: 8/22 11:41 EDT (8/22 15:41 UTC)
予報対象時間: 22日12時 EDT ~ 23日14時 EDT
風向・風速西 3m/s
視程10km以上
全天の4割程度の雲 雲底高度 1070m
22日16時 EDT から
風向・風速南南西 5m/s
視程10km以上
天気現象周辺でしゅう雨
全天の4割程度の雲 雲底高度 1220m
全天の4割程度の雲 雲底高度 3660m
22日22時 EDT から
風向・風速南西 3m/s
視程10km以上
少しの雲 雲底高度 2130m
全天の4割程度の雲 雲底高度 7620m
23日11時 EDT から
風向・風速西南西 3m/s
視程10km以上
全天の4割程度の雲 雲底高度 910m
KATL 221541Z 2216/2318 26006KT P6SM SCT035
FM222000 21009KT P6SM VCSH SCT040 SCT120
FM230200 22005KT P6SM FEW070 SCT250
FM231500 25005KT P6SM SCT030